createdAt,value
2023-03-16T00:02:12.609Z,99451.78
2023-03-16T00:04:48.032Z,99446.66
2023-03-16T00:07:17.724Z,99433.81
2023-03-16T00:09:47.368Z,99429.38
2023-03-16T00:12:22.294Z,99389.75
2023-03-16T00:14:53.817Z,99428.19
2023-03-16T00:17:23.564Z,99413.53
2023-03-16T00:19:55.634Z,99434.78
2023-03-16T00:22:32.113Z,99415.28
2023-03-16T00:25:01.474Z,99412.78
2023-03-16T00:27:31.835Z,99423.94
2023-03-16T00:30:03.390Z,99385.41
2023-03-16T00:32:36.823Z,99416.34
2023-03-16T00:35:17.159Z,99408.69
2023-03-16T00:37:46.582Z,99412.09
2023-03-16T00:40:16.450Z,99407.75
2023-03-16T00:42:54.694Z,99419.78
2023-03-16T00:45:25.776Z,99429.19
2023-03-16T00:47:55.461Z,99422.38
2023-03-16T00:50:24.633Z,99421.47
2023-03-16T00:52:54.616Z,99430.91
2023-03-16T00:55:23.763Z,99418.06
2023-03-16T00:57:53.004Z,99424.06
2023-03-16T01:00:26.216Z,99421.50
2023-03-16T01:02:57.619Z,99430.16
2023-03-16T01:05:36.963Z,99419.88
2023-03-16T01:08:06.894Z,99425.81
2023-03-16T01:10:36.744Z,99413.81
2023-03-16T01:13:12.711Z,99425.88
2023-03-16T01:15:42.502Z,99422.47
2023-03-16T01:18:14.316Z,99426.69
2023-03-16T01:20:50.625Z,99420.63
2023-03-16T01:23:20.235Z,99430.09
2023-03-16T01:25:52.803Z,99423.13
2023-03-16T01:28:29.320Z,99423.19
2023-03-16T01:31:04.806Z,99418.81
2023-03-16T01:36:17.618Z,99426.50
2023-03-16T01:39:03.683Z,99421.41
2023-03-16T01:41:43.834Z,99419.81
2023-03-16T01:44:20.622Z,99421.56
2023-03-16T01:46:50.041Z,99411.28
2023-03-16T01:49:32.421Z,99415.63
2023-03-16T01:52:07.433Z,99422.47
2023-03-16T01:57:18.556Z,99414.69
2023-03-16T01:59:53.384Z,99418.06
2023-03-16T02:02:25.848Z,99413.81
2023-03-16T02:05:03.767Z,99415.50
2023-03-16T02:07:37.969Z,99419.81
2023-03-16T02:10:14.628Z,99428.34
2023-03-16T02:12:45.486Z,99417.22
2023-03-16T02:15:16.560Z,99429.19
2023-03-16T02:17:47.654Z,99402.59
2023-03-16T02:20:30.686Z,99425.06
2023-03-16T02:23:00.761Z,99420.81
2023-03-16T02:25:42.294Z,99423.31
2023-03-16T02:28:20.886Z,99424.25
2023-03-16T02:30:58.546Z,99385.69
2023-03-16T02:33:28.695Z,99403.72
2023-03-16T02:35:58.020Z,99424.91
2023-03-16T02:38:28.428Z,99413.06
2023-03-16T02:41:01.592Z,99400.22
2023-03-16T02:43:39.398Z,99412.25
2023-03-16T02:46:35.276Z,99396.00
2023-03-16T02:49:09.625Z,99400.41
2023-03-16T02:51:40.046Z,99374.72
2023-03-16T02:54:09.578Z,99376.59
2023-03-16T02:56:39.128Z,99385.78
2023-03-16T02:59:08.575Z,99398.53
2023-03-16T03:01:40.684Z,99400.28
2023-03-16T03:04:10.762Z,99401.13
2023-03-16T03:06:39.982Z,99396.03
2023-03-16T03:09:11.062Z,99394.22
2023-03-16T03:11:40.694Z,99394.31
2023-03-16T03:16:51.926Z,99401.09
2023-03-16T03:19:20.873Z,99400.41
2023-03-16T03:21:50.539Z,99389.25
2023-03-16T03:24:27.689Z,99392.69
2023-03-16T03:26:56.929Z,99384.16
2023-03-16T03:29:34.384Z,99382.50
2023-03-16T03:32:06.308Z,99380.72
2023-03-16T03:34:42.012Z,99369.66
2023-03-16T03:37:11.398Z,99364.50
2023-03-16T03:39:43.066Z,99374.72
2023-03-16T03:42:13.334Z,99362.78
2023-03-16T03:44:52.662Z,99376.56
2023-03-16T03:47:24.111Z,99335.34
2023-03-16T03:49:53.573Z,99379.97
2023-03-16T03:52:22.855Z,99382.50
2023-03-16T03:54:52.115Z,99358.47
2023-03-16T03:57:22.005Z,99385.06
2023-03-16T03:59:52.125Z,99390.81
2023-03-16T04:02:48.456Z,99387.44
2023-03-16T04:05:27.337Z,99381.41
2023-03-16T04:08:02.224Z,99394.22
2023-03-16T04:10:32.902Z,99354.66
2023-03-16T04:13:02.982Z,99403.53
2023-03-16T04:15:38.012Z,99404.44
2023-03-16T04:18:25.579Z,99401.91
2023-03-16T04:20:55.328Z,99398.50
2023-03-16T04:23:34.825Z,99352.22
2023-03-16T04:26:05.170Z,99395.94
2023-03-16T04:28:40.199Z,99355.66
2023-03-16T04:31:12.461Z,99392.56
2023-03-16T04:33:47.564Z,99395.91
2023-03-16T04:36:17.068Z,99388.97
2023-03-16T04:38:46.858Z,99380.47
2023-03-16T04:41:16.891Z,99377.66
2023-03-16T04:43:54.599Z,99383.66
2023-03-16T04:46:27.185Z,99399.00
2023-03-16T04:48:58.849Z,99407.69
2023-03-16T04:51:30.903Z,99411.06
2023-03-16T04:54:10.834Z,99402.41
2023-03-16T04:56:46.366Z,99405.78
2023-03-16T04:59:29.307Z,99412.44
2023-03-16T05:02:09.223Z,99419.28
2023-03-16T05:04:41.051Z,99415.78
2023-03-16T05:07:13.651Z,99420.00
2023-03-16T05:09:47.129Z,99411.59
2023-03-16T05:12:16.991Z,99421.13
2023-03-16T05:14:47.883Z,99425.50
2023-03-16T05:20:18.291Z,99435.00
2023-03-16T05:22:58.223Z,99430.69
2023-03-16T05:25:31.177Z,99402.47
2023-03-16T05:28:05.007Z,99425.66
2023-03-16T05:30:56.062Z,99432.56
2023-03-16T05:33:30.609Z,99435.03
2023-03-16T05:36:09.125Z,99425.53
2023-03-16T05:38:41.610Z,99425.75
2023-03-16T05:41:24.828Z,99431.06
2023-03-16T05:44:05.754Z,99417.41
2023-03-16T05:47:04.358Z,99418.41
2023-03-16T05:49:35.936Z,99417.53
2023-03-16T05:52:12.726Z,99424.28
2023-03-16T05:54:47.104Z,99419.78
2023-03-16T05:57:17.182Z,99417.25
2023-03-16T05:59:48.649Z,99413.03
2023-03-16T06:02:18.244Z,99414.56
2023-03-16T06:04:47.828Z,99416.31
2023-03-16T06:07:24.119Z,99411.38
2023-03-16T06:09:56.652Z,99434.63
2023-03-16T06:12:34.030Z,99443.28
2023-03-16T06:15:03.266Z,99448.47
2023-03-16T06:17:32.843Z,99444.28
2023-03-16T06:20:10.575Z,99438.31
2023-03-16T06:22:44.598Z,99405.75
2023-03-16T06:25:15.750Z,99437.66
2023-03-16T06:27:48.721Z,99446.16
2023-03-16T06:30:29.889Z,99444.41
2023-03-16T06:32:59.826Z,99444.31
2023-03-16T06:35:29.119Z,99446.06
2023-03-16T06:38:29.745Z,99457.13
2023-03-16T06:41:03.927Z,99428.84
2023-03-16T06:43:36.573Z,99445.97
2023-03-16T06:46:06.276Z,99461.34
2023-03-16T06:48:35.659Z,99464.88
2023-03-16T06:51:11.075Z,99444.31
2023-03-16T06:53:42.252Z,99449.53
2023-03-16T06:56:11.612Z,99464.88
2023-03-16T07:01:23.705Z,99458.06
2023-03-16T07:03:52.877Z,99431.59
2023-03-16T07:06:26.840Z,99446.41
2023-03-16T07:08:58.772Z,99456.81
2023-03-16T07:11:30.241Z,99443.19
2023-03-16T07:14:01.205Z,99446.47
2023-03-16T07:16:32.568Z,99457.59
2023-03-16T07:19:05.091Z,99446.66
2023-03-16T07:21:42.372Z,99440.81
2023-03-16T07:24:18.619Z,99441.81
2023-03-16T07:26:53.391Z,99431.66
2023-03-16T07:29:33.735Z,99441.13
2023-03-16T07:32:05.033Z,99417.97
2023-03-16T07:34:39.279Z,99445.47
2023-03-16T07:37:25.090Z,99438.50
2023-03-16T07:40:00.652Z,99435.09
2023-03-16T07:42:29.943Z,99442.78
2023-03-16T07:45:09.171Z,99445.16
2023-03-16T07:47:39.233Z,99438.31
2023-03-16T07:50:18.966Z,99440.88
2023-03-16T07:52:50.294Z,99439.19
2023-03-16T07:55:26.628Z,99430.63
2023-03-16T07:57:56.945Z,99434.16
2023-03-16T08:00:32.453Z,99438.56
2023-03-16T08:05:38.050Z,99423.91
2023-03-16T08:08:23.245Z,99420.47
2023-03-16T08:10:56.594Z,99428.06
2023-03-16T08:13:35.128Z,99431.28
2023-03-16T08:16:05.073Z,99437.25
2023-03-16T08:18:41.448Z,99424.63
2023-03-16T08:21:11.528Z,99428.22
2023-03-16T08:23:47.058Z,99429.25
2023-03-16T08:26:19.221Z,99436.16
2023-03-16T08:28:56.782Z,99430.22
2023-03-16T08:31:26.329Z,99406.19
2023-03-16T08:34:09.651Z,99437.06
2023-03-16T08:36:43.988Z,99429.31
2023-03-16T08:39:15.396Z,99440.41
2023-03-16T08:41:50.790Z,99433.50
2023-03-16T08:44:39.644Z,99448.06
2023-03-16T08:47:10.148Z,99451.44
2023-03-16T08:49:46.580Z,99440.25
2023-03-16T08:52:18.435Z,99441.94
2023-03-16T08:55:03.065Z,99446.91
2023-03-16T08:57:41.353Z,99448.69
2023-03-16T09:00:13.520Z,99441.03
2023-03-16T09:02:43.445Z,99443.59
2023-03-16T09:05:14.427Z,99446.19
2023-03-16T09:07:44.169Z,99444.47
2023-03-16T09:10:20.680Z,99440.19
2023-03-16T09:12:52.326Z,99445.31
2023-03-16T09:15:23.494Z,99443.53
2023-03-16T09:17:53.967Z,99440.06
2023-03-16T09:20:26.910Z,99443.44
2023-03-16T09:23:04.309Z,99443.44
2023-03-16T09:28:10.943Z,99446.72
2023-03-16T09:30:45.806Z,99441.63
2023-03-16T09:33:15.075Z,99442.63
2023-03-16T09:35:51.654Z,99435.94
2023-03-16T09:38:21.350Z,99449.69
2023-03-16T09:40:57.611Z,99448.88
2023-03-16T09:43:48.935Z,99438.59
2023-03-16T09:46:28.617Z,99447.09
2023-03-16T09:49:04.585Z,99438.56
2023-03-16T09:51:51.663Z,99433.38
2023-03-16T09:54:27.290Z,99439.38
2023-03-16T09:57:03.289Z,99437.78
2023-03-16T09:59:34.411Z,99436.13
2023-03-16T10:02:35.293Z,99432.78
2023-03-16T10:05:10.400Z,99433.69
2023-03-16T10:07:52.246Z,99433.69
2023-03-16T10:10:40.962Z,99435.31
2023-03-16T10:13:19.531Z,99436.19
2023-03-16T10:15:52.999Z,99437.91
2023-03-16T10:18:24.273Z,99446.53
2023-03-16T10:20:55.290Z,99443.13
2023-03-16T10:23:27.283Z,99443.19
2023-03-16T10:25:58.043Z,99435.50
2023-03-16T10:31:14.721Z,99443.19
2023-03-16T10:33:44.385Z,99444.91
2023-03-16T10:36:18.933Z,99443.19
2023-03-16T10:38:54.873Z,99440.50
2023-03-16T10:41:27.550Z,99437.72
2023-03-16T10:44:04.473Z,99459.13
2023-03-16T10:46:40.467Z,99455.75
2023-03-16T10:49:27.159Z,99444.59
2023-03-16T10:52:08.669Z,99453.81
2023-03-16T10:54:40.965Z,99450.22
2023-03-16T10:57:21.094Z,99452.66
2023-03-16T11:00:15.965Z,99448.22
2023-03-16T11:02:53.822Z,99452.56
2023-03-16T11:05:31.923Z,99450.94
2023-03-16T11:08:03.595Z,99450.13
2023-03-16T11:10:40.490Z,99446.78
2023-03-16T11:13:24.234Z,99450.19
2023-03-16T11:16:01.225Z,99457.00
2023-03-16T11:18:47.024Z,99461.38
2023-03-16T11:21:32.155Z,99457.19
2023-03-16T11:24:04.602Z,99461.44
2023-03-16T11:26:48.945Z,99456.22
2023-03-16T11:29:25.273Z,99458.69
2023-03-16T11:31:58.219Z,99459.50
2023-03-16T11:34:31.595Z,99465.50
2023-03-16T11:37:12.900Z,99467.38
2023-03-16T11:39:52.295Z,99461.56
2023-03-16T11:42:35.573Z,99466.78
2023-03-16T11:45:20.715Z,99462.50
2023-03-16T11:48:12.457Z,99470.97
2023-03-16T11:50:59.363Z,99465.91
2023-03-16T11:53:48.272Z,99475.34
2023-03-16T11:56:24.982Z,99479.63
2023-03-16T11:59:22.316Z,99478.69
2023-03-16T12:02:04.691Z,99484.69
2023-03-16T12:04:48.111Z,99493.22
2023-03-16T12:07:35.502Z,99495.78
2023-03-16T12:10:20.014Z,99486.38
2023-03-16T12:13:03.757Z,99494.94
2023-03-16T12:15:38.038Z,99491.50
2023-03-16T12:18:15.834Z,99495.78
2023-03-16T12:20:51.927Z,99494.97
2023-03-16T12:23:29.249Z,99483.81
2023-03-16T12:26:01.366Z,99494.16
2023-03-16T12:28:33.022Z,99491.63
2023-03-16T12:31:15.725Z,99484.81
2023-03-16T12:34:01.542Z,99493.41
2023-03-16T12:37:00.629Z,99493.41
2023-03-16T12:40:07.224Z,99453.84
2023-03-16T12:43:11.219Z,99497.56
2023-03-16T12:52:57.925Z,99481.78
2023-03-16T12:55:46.438Z,99510.03
2023-03-16T12:58:24.617Z,99510.00
2023-03-16T13:01:00.501Z,99513.47
2023-03-16T13:03:30.903Z,99509.19
2023-03-16T13:06:03.053Z,99513.41
2023-03-16T13:08:45.685Z,99517.50
2023-03-16T13:11:16.117Z,99508.78
2023-03-16T13:14:05.995Z,99506.97
2023-03-16T13:16:38.126Z,99511.19
2023-03-16T13:19:27.937Z,99503.28
2023-03-16T13:22:06.546Z,99473.84
2023-03-16T13:24:41.860Z,99503.69
2023-03-16T13:27:28.972Z,99507.06
2023-03-16T13:30:01.951Z,99505.22
2023-03-16T13:32:36.206Z,99506.00
2023-03-16T13:35:11.776Z,99495.38
2023-03-16T13:37:44.326Z,99496.97
2023-03-16T13:40:24.268Z,99480.69
2023-03-16T13:42:55.878Z,99506.53
2023-03-16T13:45:34.771Z,99498.78
2023-03-16T13:48:05.102Z,99493.56
2023-03-16T13:50:35.750Z,99511.50
2023-03-16T13:53:08.384Z,99507.28
2023-03-16T13:55:47.390Z,99483.25
2023-03-16T13:58:25.498Z,99504.91
2023-03-16T14:01:01.221Z,99503.50
2023-03-16T14:03:35.591Z,99502.06
2023-03-16T14:06:05.856Z,99494.50
2023-03-16T14:08:35.696Z,99478.38
2023-03-16T14:11:07.044Z,99486.31
2023-03-16T14:13:38.906Z,99500.09
2023-03-16T14:16:18.030Z,99489.91
2023-03-16T14:18:49.381Z,99488.00
2023-03-16T14:21:21.467Z,99491.75
2023-03-16T14:23:54.994Z,99486.28
2023-03-16T14:26:26.687Z,99494.56
2023-03-16T14:28:57.992Z,99509.81
2023-03-16T14:31:35.507Z,99509.84
2023-03-16T14:34:08.461Z,99506.53
2023-03-16T14:36:43.035Z,99500.47
2023-03-16T14:39:13.639Z,99500.06
2023-03-16T14:41:45.417Z,99512.75
2023-03-16T14:44:27.607Z,99521.28
2023-03-16T14:46:59.050Z,99510.13
2023-03-16T14:49:31.347Z,99508.34
2023-03-16T14:52:08.060Z,99511.75
2023-03-16T14:54:37.460Z,99514.88
2023-03-16T14:57:08.989Z,99505.34
2023-03-16T14:59:38.214Z,99519.19
2023-03-16T15:02:18.386Z,99518.16
2023-03-16T15:04:49.442Z,99526.75
2023-03-16T15:07:29.244Z,99511.94
2023-03-16T15:10:05.125Z,99517.94
2023-03-16T15:12:37.679Z,99538.59
2023-03-16T15:15:17.712Z,99544.81
2023-03-16T15:17:47.883Z,99550.78
2023-03-16T15:20:19.809Z,99542.25
2023-03-16T15:22:51.026Z,99544.13
2023-03-16T15:25:29.934Z,99545.81
2023-03-16T15:28:01.860Z,99542.16
2023-03-16T15:30:32.188Z,99550.81
2023-03-16T15:33:07.166Z,99546.44
2023-03-16T15:35:38.302Z,99556.53
2023-03-16T15:41:02.749Z,99557.28
2023-03-16T15:43:34.172Z,99565.09
2023-03-16T15:46:04.723Z,99559.19
2023-03-16T15:48:34.602Z,99537.47
2023-03-16T15:51:08.238Z,99572.47
2023-03-16T15:53:40.945Z,99580.31
2023-03-16T15:56:12.800Z,99570.19
2023-03-16T15:58:52.409Z,99582.16
2023-03-16T16:01:25.084Z,99585.50
2023-03-16T16:03:59.584Z,99589.66
2023-03-16T16:06:29.970Z,99574.19
2023-03-16T16:09:06.101Z,99593.97
2023-03-16T16:11:35.447Z,99603.25
2023-03-16T16:14:11.989Z,99631.41
2023-03-16T16:16:41.644Z,99620.50
2023-03-16T16:19:15.216Z,99585.34
2023-03-16T16:21:45.927Z,99618.69
2023-03-16T16:24:15.186Z,99621.91
2023-03-16T16:26:54.804Z,99620.88
2023-03-16T16:29:29.917Z,99623.88
2023-03-16T16:31:59.280Z,99610.19
2023-03-16T16:34:28.802Z,99626.25
2023-03-16T16:37:08.226Z,99648.31
2023-03-16T16:39:40.066Z,99654.47
2023-03-16T16:42:18.023Z,99660.72
2023-03-16T16:44:49.168Z,99664.41
2023-03-16T16:47:22.414Z,99638.75
2023-03-16T16:49:52.251Z,99657.53
2023-03-16T16:52:22.202Z,99662.25
2023-03-16T16:54:51.345Z,99671.00
2023-03-16T16:57:21.986Z,99674.63
2023-03-16T16:59:53.126Z,99680.69
2023-03-16T17:02:33.156Z,99686.72
2023-03-16T17:05:09.027Z,99675.63
2023-03-16T17:07:38.748Z,99673.81
2023-03-16T17:10:09.359Z,99675.59
2023-03-16T17:12:43.575Z,99671.88
2023-03-16T17:15:29.022Z,99669.31
2023-03-16T17:18:08.852Z,99669.84
2023-03-16T17:20:38.514Z,99675.16
2023-03-16T17:23:28.857Z,99634.53
2023-03-16T17:25:59.858Z,99658.56
2023-03-16T17:28:30.851Z,99686.81
2023-03-16T17:31:02.194Z,99674.25
2023-03-16T17:33:31.556Z,99666.72
2023-03-16T17:36:01.567Z,99669.78
2023-03-16T17:38:30.934Z,99674.88
2023-03-16T17:41:00.258Z,99666.97
2023-03-16T17:43:31.437Z,99690.22
2023-03-16T17:46:04.959Z,99671.50
2023-03-16T17:48:40.761Z,99666.09
2023-03-16T17:51:14.787Z,99701.41
2023-03-16T17:53:48.985Z,99702.44
2023-03-16T17:56:20.480Z,99691.47
2023-03-16T17:58:58.907Z,99678.75
2023-03-16T18:01:35.509Z,99684.06
2023-03-16T18:06:50.874Z,99701.50
2023-03-16T18:09:27.008Z,99701.44
2023-03-16T18:11:57.274Z,99658.53
2023-03-16T18:14:36.298Z,99703.56
2023-03-16T18:17:17.665Z,99714.63
2023-03-16T18:19:48.451Z,99727.53
2023-03-16T18:22:19.793Z,99724.03
2023-03-16T18:25:00.577Z,99672.97
2023-03-16T18:27:29.856Z,99717.91
2023-03-16T18:29:59.565Z,99722.28
2023-03-16T18:32:32.061Z,99718.13
2023-03-16T18:35:03.834Z,99716.09
2023-03-16T18:37:38.569Z,99724.72
2023-03-16T18:40:12.384Z,99725.66
2023-03-16T18:42:48.446Z,99725.69
2023-03-16T18:45:18.511Z,99742.59
2023-03-16T18:47:58.271Z,99739.28
2023-03-16T18:50:30.470Z,99737.34
2023-03-16T18:52:59.752Z,99737.34
2023-03-16T18:55:35.260Z,99739.97
2023-03-16T18:58:13.241Z,99715.66
2023-03-16T19:00:42.629Z,99749.13
2023-03-16T19:03:23.254Z,99746.75
2023-03-16T19:05:52.662Z,99710.56
2023-03-16T19:08:22.961Z,99744.09
2023-03-16T19:11:05.213Z,99742.41
2023-03-16T19:13:34.366Z,99755.16
2023-03-16T19:16:04.712Z,99754.06
2023-03-16T19:18:41.649Z,99762.59
2023-03-16T19:21:14.743Z,99772.97
2023-03-16T19:23:55.930Z,99775.84
2023-03-16T19:26:25.395Z,99784.44
2023-03-16T19:28:54.616Z,99774.38
2023-03-16T19:31:32.340Z,99755.56
2023-03-16T19:34:03.599Z,99786.38
2023-03-16T19:36:44.155Z,99780.28
2023-03-16T19:39:15.077Z,99786.19
2023-03-16T19:44:24.856Z,99788.63
2023-03-16T19:47:04.224Z,99786.34
2023-03-16T19:49:35.467Z,99792.19
2023-03-16T19:52:04.633Z,99787.94
2023-03-16T19:54:34.615Z,99771.38
2023-03-16T19:57:18.633Z,99793.50
2023-03-16T19:59:51.009Z,99795.13
2023-03-16T20:02:29.019Z,99805.75
2023-03-16T20:05:00.236Z,99816.94
2023-03-16T20:07:37.695Z,99785.13
2023-03-16T20:10:07.575Z,99751.53
2023-03-16T20:12:38.271Z,99801.31
2023-03-16T20:15:08.285Z,99788.81
2023-03-16T20:17:37.872Z,99808.28
2023-03-16T20:20:21.894Z,99798.94
2023-03-16T20:22:52.026Z,99810.13
2023-03-16T20:25:34.743Z,99805.72
2023-03-16T20:28:04.839Z,99816.59
2023-03-16T20:30:34.277Z,99810.53
2023-03-16T20:33:08.432Z,99807.25
2023-03-16T20:38:15.639Z,99821.53
2023-03-16T20:40:46.777Z,99826.28
2023-03-16T20:43:27.220Z,99802.59
2023-03-16T20:46:05.533Z,99812.03
2023-03-16T20:48:35.107Z,99800.66
2023-03-16T20:51:07.958Z,99842.66
2023-03-16T20:53:37.486Z,99823.03
2023-03-16T20:56:07.354Z,99829.81
2023-03-16T20:58:37.595Z,99835.72
2023-03-16T21:01:17.437Z,99828.59
2023-03-16T21:03:48.222Z,99846.63
2023-03-16T21:06:29.391Z,99861.34
2023-03-16T21:09:00.759Z,99847.69
2023-03-16T21:11:36.252Z,99835.56
2023-03-16T21:14:07.422Z,99855.16
2023-03-16T21:16:36.779Z,99854.50
2023-03-16T21:19:13.828Z,99859.97
2023-03-16T21:21:45.974Z,99872.81
2023-03-16T21:24:15.230Z,99861.50
2023-03-16T21:26:46.993Z,99865.00
2023-03-16T21:29:23.253Z,99877.94
2023-03-16T21:31:54.882Z,99876.81
2023-03-16T21:34:32.743Z,99860.34
2023-03-16T21:37:03.917Z,99881.31
2023-03-16T21:39:38.271Z,99883.44
2023-03-16T21:42:07.588Z,99851.69
2023-03-16T21:44:37.202Z,99877.25
2023-03-16T21:47:24.054Z,99873.31
2023-03-16T21:49:53.433Z,99862.03
2023-03-16T21:52:27.761Z,99865.59
2023-03-16T21:55:02.182Z,99872.75
2023-03-16T21:57:37.048Z,99864.19
2023-03-16T22:00:07.224Z,99905.97
2023-03-16T22:02:37.210Z,99880.47
2023-03-16T22:05:26.595Z,99833.03
2023-03-16T22:08:03.456Z,99891.78
2023-03-16T22:10:32.735Z,99886.94
2023-03-16T22:13:01.784Z,99838.88
2023-03-16T22:15:31.525Z,99881.69
2023-03-16T22:18:03.896Z,99896.63
2023-03-16T22:20:33.452Z,99837.41
2023-03-16T22:23:04.541Z,99900.59
2023-03-16T22:25:33.767Z,99891.34
2023-03-16T22:28:03.767Z,99887.00
2023-03-16T22:30:33.227Z,99891.09
2023-03-16T22:33:02.567Z,99883.78
2023-03-16T22:35:35.053Z,99862.78
2023-03-16T22:38:08.688Z,99885.22
2023-03-16T22:40:39.700Z,99914.19
2023-03-16T22:43:16.300Z,99876.44
2023-03-16T22:45:45.804Z,99877.09
2023-03-16T22:48:19.995Z,99835.53
2023-03-16T22:50:49.276Z,99838.56
2023-03-16T22:53:29.929Z,99916.66
2023-03-16T22:55:59.297Z,99921.94
2023-03-16T22:58:39.720Z,99894.56
2023-03-16T23:01:17.691Z,99897.81
2023-03-16T23:03:47.535Z,99913.38
2023-03-16T23:06:21.680Z,99916.66
2023-03-16T23:08:54.035Z,99905.22
2023-03-16T23:11:25.845Z,99913.41
2023-03-16T23:13:56.356Z,99861.53
2023-03-16T23:16:28.779Z,99914.19
2023-03-16T23:19:04.412Z,99913.28
2023-03-16T23:21:40.049Z,99910.88
2023-03-16T23:24:16.320Z,99928.16
2023-03-16T23:26:45.871Z,99943.56
2023-03-16T23:29:16.075Z,99940.25
2023-03-16T23:31:45.353Z,99959.81
2023-03-16T23:34:15.909Z,99964.28
2023-03-16T23:36:45.463Z,99927.47
2023-03-16T23:39:16.601Z,99922.63
2023-03-16T23:47:06.653Z,99955.84
2023-03-16T23:49:38.460Z,99956.75
2023-03-16T23:52:07.694Z,99964.97
2023-03-16T23:54:38.915Z,99942.28
2023-03-16T23:57:13.217Z,99947.19
2023-03-16T23:59:42.304Z,99975.69
